Time;durP1;ratioP1;P1;durP2;ratioP2;P2;SDS_P1;SDS_P2;PMS_P1;PMS_P2;Temp;Humidity;BMP_temperature;BMP_pressure;BME280_temperature;BME280_humidity;BME280_pressure;Samples;Min_cycle;Max_cycle;Signal;HPM_P1;HPM_P2
2023/04/22 00:00:20;;;;;;;18.20;12.38;;;;;;;9.77;100.00;99820.72;8327330;28;20041;-62
2023/04/22 00:04:20;;;;;;;20.52;13.63;;;;;;;9.68;100.00;99829.72;8308470;28;20061;-62
2023/04/22 00:08:21;;;;;;;20.98;13.18;;;;;;;9.73;100.00;99819.31;8293256;28;20049;-62
2023/04/22 00:12:21;;;;;;;22.25;14.57;;;;;;;9.75;100.00;99820.88;8294607;28;20038;-62
2023/04/22 00:16:22;;;;;;;24.17;14.40;;;;;;;9.69;100.00;99821.47;8293986;28;20037;-62
2023/04/22 00:20:23;;;;;;;21.45;13.10;;;;;;;9.65;100.00;99816.53;8293649;28;20076;-61
2023/04/22 00:24:23;;;;;;;21.65;12.70;;;;;;;9.71;100.00;99824.00;8319075;28;20040;-62
2023/04/22 00:28:24;;;;;;;24.15;15.10;;;;;;;9.75;100.00;99820.88;8293053;28;20052;-62
2023/04/22 00:32:25;;;;;;;25.33;14.63;;;;;;;9.75;100.00;99815.47;8323541;28;20042;-62
2023/04/22 00:36:26;;;;;;;30.90;16.77;;;;;;;9.74;100.00;99808.38;8324840;28;20469;-62
2023/04/22 00:40:27;;;;;;;37.50;18.27;;;;;;;9.73;100.00;99811.22;8324570;28;20052;-62
2023/04/22 00:44:28;;;;;;;32.50;17.88;;;;;;;9.74;100.00;99807.53;8293005;28;20046;-62
2023/04/22 00:48:28;;;;;;;28.67;18.10;;;;;;;9.75;100.00;99809.22;8293192;28;20061;-62
2023/04/22 00:52:29;;;;;;;34.97;21.00;;;;;;;9.77;100.00;99807.22;8309406;28;20061;-62
2023/04/22 00:56:30;;;;;;;40.00;22.63;;;;;;;9.81;100.00;99820.25;8325519;28;20407;-63
2023/04/22 01:00:31;;;;;;;33.63;19.77;;;;;;;9.79;100.00;99821.41;8325661;28;20797;-61
2023/04/22 01:04:31;;;;;;;34.80;19.85;;;;;;;9.80;100.00;99817.72;8292441;28;20042;-63
2023/04/22 01:08:33;;;;;;;40.08;23.80;;;;;;;9.79;100.00;99816.03;8293097;28;20100;-61
2023/04/22 01:12:33;;;;;;;47.95;25.42;;;;;;;9.81;100.00;99808.59;8290694;28;20100;-58
2023/04/22 01:16:37;;;;;;;43.05;24.40;;;;;;;9.85;100.00;99802.75;8292939;28;20170;-57
2023/04/22 01:20:38;;;;;;;42.22;24.30;;;;;;;9.77;100.00;99801.81;8283528;28;20045;-58
2023/04/22 01:24:38;;;;;;;53.78;27.67;;;;;;;9.76;100.00;99800.97;8324223;28;20053;-61
2023/04/22 01:28:39;;;;;;;53.67;28.08;;;;;;;9.76;100.00;99810.94;8325453;28;20044;-61
2023/04/22 01:32:40;;;;;;;48.70;28.23;;;;;;;9.79;100.00;99811.44;8325258;28;20328;-61
2023/04/22 01:36:40;;;;;;;42.20;24.35;;;;;;;9.83;100.00;99806.59;8322304;28;20037;-61
2023/04/22 01:40:41;;;;;;;43.45;25.10;;;;;;;9.74;100.00;99804.81;8324466;28;20045;-57
2023/04/22 01:44:41;;;;;;;40.88;23.85;;;;;;;9.73;100.00;99811.22;8324642;28;20041;-58
2023/04/22 01:48:42;;;;;;;46.22;24.25;;;;;;;9.74;100.00;99812.91;8323867;28;20423;-58
2023/04/22 01:52:43;;;;;;;39.03;24.17;;;;;;;9.73;100.00;99813.94;8324303;28;20145;-62
2023/04/22 01:56:49;;;;;;;39.60;21.92;;;;;;;9.69;100.00;99801.72;8324427;28;20045;-61
2023/04/22 02:00:51;;;;;;;32.97;19.38;;;;;;;9.66;100.00;99805.59;8324388;28;20455;-61
2023/04/22 02:04:52;;;;;;;34.42;20.67;;;;;;;9.60;100.00;99799.94;8321163;28;20045;-62
2023/04/22 02:08:52;;;;;;;36.90;21.38;;;;;;;9.59;100.00;99792.84;8323040;28;20041;-62
2023/04/22 02:12:53;;;;;;;37.58;21.92;;;;;;;9.65;100.00;99785.00;8322418;28;20091;-61
2023/04/22 02:16:53;;;;;;;36.05;22.05;;;;;;;9.64;100.00;99779.75;8323334;28;20033;-61
2023/04/22 02:20:54;;;;;;;33.63;20.13;;;;;;;9.68;100.00;99776.59;8305906;28;20045;-61
2023/04/22 02:24:54;;;;;;;32.70;19.58;;;;;;;9.69;100.00;99788.22;8303579;28;20056;-58
2023/04/22 02:28:55;;;;;;;34.53;19.05;;;;;;;9.75;100.00;99793.00;8291311;28;20048;-61
2023/04/22 02:32:55;;;;;;;30.70;19.10;;;;;;;9.78;100.00;99787.31;8323219;28;20040;-62
2023/04/22 02:36:56;;;;;;;34.92;19.83;;;;;;;9.83;100.00;99785.00;8320439;28;20056;-61
2023/04/22 02:40:56;;;;;;;30.75;18.67;;;;;;;9.81;100.00;99790.56;8320280;28;20045;-61
2023/04/22 02:44:57;;;;;;;29.08;17.52;;;;;;;9.81;100.00;99787.00;8321468;28;20197;-62
2023/04/22 02:48:57;;;;;;;32.40;19.20;;;;;;;9.89;100.00;99776.28;8323186;28;20403;-62
2023/04/22 02:52:58;;;;;;;29.65;18.05;;;;;;;9.87;100.00;99776.44;8322108;28;20034;-62
2023/04/22 02:56:58;;;;;;;31.52;19.08;;;;;;;9.91;100.00;99777.81;8323205;28;20503;-62
2023/04/22 03:00:59;;;;;;;28.08;18.23;;;;;;;9.94;100.00;99772.13;8322304;28;20381;-61
2023/04/22 03:04:59;;;;;;;29.23;17.45;;;;;;;9.93;100.00;99773.13;8322629;28;20045;-58
2023/04/22 03:09:01;;;;;;;27.42;18.23;;;;;;;9.96;100.00;99758.47;8322788;28;20033;-58
2023/04/22 03:13:02;;;;;;;28.83;17.13;;;;;;;10.03;100.00;99775.72;8322300;28;20499;-58
2023/04/22 03:17:03;;;;;;;29.65;17.73;;;;;;;10.05;100.00;99773.72;8321851;28;20049;-58
2023/04/22 03:21:03;;;;;;;31.60;18.20;;;;;;;10.13;100.00;99764.88;8321717;28;20037;-58
2023/04/22 03:25:05;;;;;;;30.73;17.67;;;;;;;10.09;100.00;99761.63;8322935;28;20049;-58
2023/04/22 03:29:06;;;;;;;26.73;17.38;;;;;;;10.13;100.00;99754.09;8328827;28;20045;-58
2023/04/22 03:33:06;;;;;;;28.50;17.40;;;;;;;10.17;100.00;99756.31;8327745;28;20044;-58
2023/04/22 03:37:14;;;;;;;27.80;17.75;;;;;;;10.21;100.00;99752.28;8328235;28;20407;-58
2023/04/22 03:41:14;;;;;;;27.15;17.50;;;;;;;10.30;100.00;99745.94;8327486;28;20038;-57
2023/04/22 03:45:20;;;;;;;27.25;18.05;;;;;;;10.29;100.00;99744.25;8326570;28;20434;-57
2023/04/22 03:49:27;;;;;;;27.30;16.92;;;;;;;10.28;100.00;99722.81;8326918;28;20034;-58
2023/04/22 03:53:29;;;;;;;27.85;17.42;;;;;;;10.26;100.00;99728.38;8326875;28;20038;-58
2023/04/22 03:57:30;;;;;;;31.33;17.13;;;;;;;10.27;100.00;99718.44;8328535;28;20045;-62
2023/04/22 04:01:33;;;;;;;27.48;16.13;;;;;;;10.26;100.00;99714.84;8325206;28;20130;-61
2023/04/22 04:05:37;;;;;;;;;;;;;;;10.35;100.00;99727.41;8293061;28;20124;-61
2023/04/22 04:09:38;;;;;;;27.83;16.20;;;;;;;10.38;100.00;99721.69;8292253;28;19925;-61
2023/04/22 04:13:39;;;;;;;26.63;15.07;;;;;;;10.46;100.00;99719.03;8294581;28;20033;-61
2023/04/22 04:17:50;;;;;;;20.83;14.30;;;;;;;10.46;100.00;99697.41;8294331;28;20404;-61
2023/04/22 04:21:53;;;;;;;22.80;14.90;;;;;;;10.47;100.00;99709.94;8303417;28;20057;-62
2023/04/22 04:25:55;;;;;;;20.55;13.02;;;;;;;10.51;100.00;99705.03;8341624;28;20551;-61
2023/04/22 04:29:56;;;;;;;18.75;12.90;;;;;;;10.57;100.00;99704.41;8326177;28;20561;-61
2023/04/22 04:34:15;;;;;;;23.23;13.20;;;;;;;10.58;100.00;99706.94;8326731;28;20576;-61
2023/04/22 04:38:16;;;;;;;20.55;12.73;;;;;;;10.55;100.00;99691.06;8326805;28;20435;-61
2023/04/22 04:42:17;;;;;;;17.48;11.82;;;;;;;10.57;100.00;99697.16;8326120;28;20112;-61
2023/04/22 04:46:28;;;;;;;23.50;12.98;;;;;;;10.53;100.00;99692.22;8326707;28;20049;-61
2023/04/22 04:50:30;;;;;;;17.98;11.48;;;;;;;10.52;100.00;99688.66;8326240;28;20034;-61
2023/04/22 04:54:34;;;;;;;22.23;12.13;;;;;;;10.45;100.00;99684.91;8326228;28;20041;-61
2023/04/22 04:58:36;;;;;;;18.23;12.77;;;;;;;10.53;100.00;99694.94;8325571;28;20041;-62
2023/04/22 05:02:44;;;;;;;18.33;11.68;;;;;;;10.52;100.00;99680.56;8296155;28;20042;-62
2023/04/22 05:06:45;;;;;;;18.35;11.70;;;;;;;10.54;100.00;99678.56;8293346;28;20519;-62
2023/04/22 05:10:47;;;;;;;16.98;11.10;;;;;;;10.60;100.00;99683.31;8293071;28;20044;-62
2023/04/22 05:14:50;;;;;;;18.90;12.02;;;;;;;10.66;100.00;99693.50;8292725;28;20033;-62
2023/04/22 05:18:51;;;;;;;18.88;11.68;;;;;;;10.64;100.00;99691.97;8292652;28;20496;-62
2023/04/22 05:22:51;;;;;;;16.63;11.57;;;;;;;10.73;100.00;99689.13;8311125;28;20671;-62
2023/04/22 05:26:52;;;;;;;16.80;11.48;;;;;;;10.82;100.00;99701.66;8322805;28;20061;-62
2023/04/22 05:30:54;;;;;;;16.75;11.02;;;;;;;11.00;100.00;99691.59;8323780;28;20038;-62
2023/04/22 05:34:54;;;;;;;14.43;9.65;;;;;;;11.11;100.00;99688.63;8318307;28;20056;-58
2023/04/22 05:38:55;;;;;;;13.40;9.85;;;;;;;11.24;100.00;99694.41;8302669;28;20041;-58
2023/04/22 05:42:56;;;;;;;14.60;9.32;;;;;;;11.35;100.00;99702.19;8294443;28;20114;-58
2023/04/22 05:46:56;;;;;;;15.15;9.18;;;;;;;11.48;100.00;99696.31;8325072;28;20065;-58
2023/04/22 05:51:00;;;;;;;10.50;7.93;;;;;;;11.60;100.00;99685.00;8324243;28;20041;-58
2023/04/22 05:55:03;;;;;;;11.45;8.15;;;;;;;11.70;100.00;99688.44;8323439;28;20518;-58
2023/04/22 05:59:04;;;;;;;13.82;7.93;;;;;;;11.78;100.00;99703.84;8326655;28;20411;-59
2023/04/22 06:03:05;;;;;;;11.07;7.60;;;;;;;11.80;100.00;99697.22;8322843;28;20063;-59
2023/04/22 06:07:06;;;;;;;9.90;7.63;;;;;;;12.02;100.00;99700.28;8324508;28;20550;-62
2023/04/22 06:11:06;;;;;;;9.52;7.22;;;;;;;12.33;100.00;99695.84;8323989;28;20045;-61
2023/04/22 06:15:11;;;;;;;12.23;7.35;;;;;;;12.65;100.00;99698.47;8323334;28;20040;-61
2023/04/22 06:19:12;;;;;;;10.32;7.07;;;;;;;13.04;100.00;99693.97;8323717;28;20132;-62
2023/04/22 06:23:12;;;;;;;9.23;7.05;;;;;;;13.41;100.00;99696.81;8322160;28;20041;-62
2023/04/22 06:27:13;;;;;;;6.85;5.78;;;;;;;13.53;100.00;99689.97;8322305;28;20053;-61
2023/04/22 06:31:14;;;;;;;9.27;5.95;;;;;;;13.53;100.00;99687.25;8319361;28;20033;-62
2023/04/22 06:35:14;;;;;;;7.57;6.63;;;;;;;13.43;100.00;99682.06;8321824;28;20095;-62
2023/04/22 06:39:15;;;;;;;7.50;5.93;;;;;;;13.34;100.00;99669.56;8322578;28;20041;-62
2023/04/22 06:43:35;;;;;;;7.97;6.50;;;;;;;13.32;100.00;99676.19;8322022;28;20041;-62
2023/04/22 06:47:54;;;;;;;8.35;6.20;;;;;;;13.48;100.00;99665.25;8405525;27;20477;-62
2023/04/22 06:51:58;;;;;;;6.93;5.70;;;;;;;13.80;100.00;99682.16;8394183;27;20062;-61
2023/04/22 06:55:58;;;;;;;7.40;5.38;;;;;;;14.51;100.00;99680.81;8391316;27;20036;-58
2023/04/22 06:59:59;;;;;;;6.97;5.20;;;;;;;14.91;100.00;99689.38;8403776;28;20085;-58
2023/04/22 07:04:01;;;;;;;6.57;4.95;;;;;;;15.22;100.00;99675.56;8367029;28;20072;-58
2023/04/22 07:08:01;;;;;;;7.90;4.95;;;;;;;15.43;98.31;99673.75;8400940;27;20098;-58
2023/04/22 07:12:02;;;;;;;6.10;4.65;;;;;;;15.54;95.37;99675.97;8407691;27;20066;-59
2023/04/22 07:16:04;;;;;;;5.15;4.55;;;;;;;15.72;96.58;99667.38;8398798;27;20036;-59
2023/04/22 07:20:06;;;;;;;5.63;4.15;;;;;;;15.92;95.13;99673.03;8398158;27;20392;-59
2023/04/22 07:24:10;;;;;;;4.90;4.22;;;;;;;16.14;93.33;99671.94;8398761;27;20124;-59
2023/04/22 07:28:11;;;;;;;;;;;;;;;16.17;94.55;99666.09;8378757;27;20507;-59
2023/04/22 07:32:11;;;;;;;4.97;3.90;;;;;;;16.54;91.19;99663.06;8367639;28;20291;-59
2023/04/22 07:36:11;;;;;;;7.00;4.00;;;;;;;16.73;86.43;99656.88;8379505;27;20279;-59
2023/04/22 07:40:12;;;;;;;6.22;3.90;;;;;;;17.11;85.66;99655.44;8400561;27;20326;-59
2023/04/22 07:44:17;;;;;;;5.88;3.90;;;;;;;17.54;85.60;99656.88;8381027;27;20074;-59
2023/04/22 07:48:17;;;;;;;4.93;3.83;;;;;;;17.42;83.63;99653.84;8393273;27;20552;-59
2023/04/22 07:52:19;;;;;;;4.07;3.42;;;;;;;17.73;83.79;99650.59;8375122;27;20466;-58
2023/04/22 07:56:20;;;;;;;4.60;3.38;;;;;;;17.95;81.73;99643.91;8392581;27;20040;-59
2023/04/22 08:00:20;;;;;;;5.75;3.60;;;;;;;18.02;82.08;99639.28;8370834;28;20048;-59
2023/04/22 08:04:22;;;;;;;4.90;4.10;;;;;;;18.13;81.78;99630.44;8365403;28;20056;-59
2023/04/22 08:08:23;;;;;;;4.32;3.22;;;;;;;18.79;82.89;99643.00;8361916;28;20036;-59
2023/04/22 08:12:24;;;;;;;5.45;2.47;;;;;;;19.24;75.65;99619.25;8357389;28;20037;-58
2023/04/22 08:16:24;;;;;;;6.68;2.45;;;;;;;19.31;72.10;99626.41;8335695;28;20377;-58
2023/04/22 08:20:24;;;;;;;2.25;2.00;;;;;;;19.18;72.16;99610.00;8352355;28;20480;-59
2023/04/22 08:24:25;;;;;;;4.13;2.08;;;;;;;18.87;70.81;99607.19;8355144;28;20041;-59
2023/04/22 08:28:26;;;;;;;3.53;2.20;;;;;;;18.69;70.94;99631.69;8369709;28;20041;-59
2023/04/22 08:32:26;;;;;;;4.47;2.10;;;;;;;18.77;70.27;99617.75;8389888;28;20045;-59
2023/04/22 08:36:27;;;;;;;3.22;2.20;;;;;;;18.86;71.98;99613.72;8357916;28;20043;-59
2023/04/22 08:40:28;;;;;;;1.63;1.52;;;;;;;19.38;68.43;99608.06;8366440;28;20048;-59
2023/04/22 08:44:29;;;;;;;2.92;2.17;;;;;;;19.57;70.21;99613.66;8358904;28;20124;-59
2023/04/22 08:48:31;;;;;;;5.03;2.10;;;;;;;19.83;68.04;99613.47;8358640;28;20047;-59
2023/04/22 08:52:31;;;;;;;3.60;2.20;;;;;;;20.02;67.06;99604.22;8390361;28;20499;-59
2023/04/22 08:56:34;;;;;;;4.18;1.70;;;;;;;19.66;67.53;99585.72;8361933;28;20434;-59
2023/04/22 09:00:35;;;;;;;3.05;2.17;;;;;;;19.98;70.00;99586.53;8365061;28;20036;-59
2023/04/22 09:04:35;;;;;;;4.07;1.95;;;;;;;20.28;68.78;99580.16;8369082;28;20049;-59
2023/04/22 09:08:37;;;;;;;3.25;1.90;;;;;;;20.52;68.18;99586.72;8355609;28;20049;-59
2023/04/22 09:12:40;;;;;;;3.95;1.98;;;;;;;20.79;66.76;99577.09;8356843;28;20071;-60
2023/04/22 09:16:45;;;;;;;3.38;1.85;;;;;;;20.57;65.17;99581.38;8356737;28;20044;-59
2023/04/22 09:20:48;;;;;;;3.47;2.33;;;;;;;20.67;65.43;99565.19;8362031;28;20048;-59
2023/04/22 09:24:50;;;;;;;5.50;2.25;;;;;;;20.87;64.51;99569.41;8386406;28;20043;-59
2023/04/22 09:28:53;;;;;;;4.22;2.20;;;;;;;20.58;66.13;99572.03;8372068;28;20102;-59
2023/04/22 09:32:55;;;;;;;3.10;1.83;;;;;;;20.35;64.03;99550.78;8369778;28;20036;-59
2023/04/22 09:36:56;;;;;;;4.13;1.92;;;;;;;20.61;64.29;99571.59;8357321;28;20416;-59
2023/04/22 09:40:56;;;;;;;6.27;2.50;;;;;;;21.71;63.87;99580.31;8351198;28;20147;-58
2023/04/22 09:44:57;;;;;;;4.22;1.95;;;;;;;22.18;61.13;99573.88;8369368;28;20340;-59
2023/04/22 09:48:58;;;;;;;2.72;1.70;;;;;;;23.36;58.05;99577.09;8368201;28;20384;-59
2023/04/22 09:53:01;;;;;;;3.42;2.15;;;;;;;23.95;56.22;99574.66;8372156;28;20033;-59
2023/04/22 09:57:03;;;;;;;4.72;1.90;;;;;;;23.54;56.18;99585.19;8357042;28;20216;-59
2023/04/22 10:01:04;;;;;;;7.03;1.80;;;;;;;21.77;59.20;99584.91;8358403;28;20120;-59
2023/04/22 10:05:05;;;;;;;4.80;1.88;;;;;;;21.37;61.98;99602.22;8352779;28;20044;-58
2023/04/22 10:09:06;;;;;;;2.08;1.83;;;;;;;21.51;61.90;99587.19;8353440;28;20049;-58
2023/04/22 10:13:07;;;;;;;2.90;1.83;;;;;;;22.39;60.40;99587.06;8352864;28;20104;-59
2023/04/22 10:17:09;;;;;;;2.85;2.13;;;;;;;23.46;57.53;99588.31;8353343;28;20037;-59
2023/04/22 10:21:10;;;;;;;2.17;1.98;;;;;;;23.63;56.42;99598.31;8359665;28;20119;-59
2023/04/22 10:25:19;;;;;;;5.22;1.88;;;;;;;22.57;59.14;99614.50;8369604;28;20045;-62
2023/04/22 10:29:20;;;;;;;4.03;2.00;;;;;;;23.85;57.17;99607.56;8380569;28;20075;-59
2023/04/22 10:33:27;;;;;;;3.45;2.20;;;;;;;24.38;56.86;99621.81;8359421;28;20041;-62
2023/04/22 10:37:27;;;;;;;5.18;2.10;;;;;;;24.56;54.48;99617.94;8352524;28;20048;-59
2023/04/22 10:41:31;;;;;;;2.10;1.77;;;;;;;23.50;56.89;99603.28;8350811;28;20041;-59
2023/04/22 10:45:31;;;;;;;3.57;1.90;;;;;;;22.50;58.45;99619.28;8350974;28;20051;-59
2023/04/22 10:49:33;;;;;;;2.20;1.75;;;;;;;22.22;58.58;99619.13;8350400;28;20029;-59
2023/04/22 10:53:35;;;;;;;3.70;1.88;;;;;;;24.17;56.69;99618.94;8363170;28;20060;-59
2023/04/22 10:57:40;;;;;;;4.80;2.30;;;;;;;23.77;55.32;99612.66;8360051;28;20049;-56
2023/04/22 11:01:40;;;;;;;4.10;2.70;;;;;;;24.50;55.86;99603.22;8360426;28;20033;-60
2023/04/22 11:05:42;;;;;;;6.13;1.92;;;;;;;24.33;53.40;99612.56;8369010;28;20043;-60
2023/04/22 11:09:44;;;;;;;3.65;2.20;;;;;;;24.15;55.44;99610.91;8352192;28;20037;-60
2023/04/22 11:13:49;;;;;;;3.38;1.98;;;;;;;24.84;54.57;99606.78;8362272;28;20036;-59
2023/04/22 11:17:50;;;;;;;4.07;1.88;;;;;;;25.10;54.05;99592.22;8349753;28;20036;-59
2023/04/22 11:21:52;;;;;;;4.78;1.98;;;;;;;24.29;54.95;99584.63;8373827;28;20301;-59
2023/04/22 11:25:58;;;;;;;4.05;1.95;;;;;;;23.88;55.90;99603.50;8376104;28;20043;-59
2023/04/22 11:30:06;;;;;;;5.25;2.38;;;;;;;23.57;59.08;99604.00;8363266;28;20520;-59
2023/04/22 11:34:08;;;;;;;6.03;2.85;;;;;;;24.31;56.69;99609.25;8357181;28;20047;-60
2023/04/22 11:38:09;;;;;;;6.53;2.75;;;;;;;23.59;57.66;99596.31;8362533;28;20049;-59
2023/04/22 11:42:12;;;;;;;4.28;2.65;;;;;;;22.78;59.13;99613.88;8358307;28;20037;-59
2023/04/22 11:46:12;;;;;;;3.65;2.70;;;;;;;22.41;60.18;99612.44;8364621;28;20044;-59
2023/04/22 11:50:13;;;;;;;4.03;2.50;;;;;;;22.05;60.38;99620.88;8363529;28;20048;-59
2023/04/22 11:54:13;;;;;;;5.47;2.53;;;;;;;22.08;63.36;99605.81;8370585;28;20090;-63
2023/04/22 11:58:16;;;;;;;7.22;2.90;;;;;;;21.88;64.79;99611.63;8357857;28;20041;-63
2023/04/22 12:02:17;;;;;;;4.32;2.50;;;;;;;21.62;64.88;99606.47;8388346;28;20413;-63
2023/04/22 12:06:17;;;;;;;8.83;2.73;;;;;;;21.65;65.80;99617.00;8365169;28;20064;-63
2023/04/22 12:10:17;;;;;;;5.18;2.53;;;;;;;21.68;66.02;99611.03;8361738;28;20295;-63
2023/04/22 12:14:18;;;;;;;4.55;2.40;;;;;;;21.84;66.82;99617.84;8362118;28;20466;-63
2023/04/22 12:18:36;;;;;;;4.13;2.00;;;;;;;21.92;63.34;99621.09;8358772;28;20114;-63
2023/04/22 12:22:37;;;;;;;4.13;2.30;;;;;;;21.88;63.03;99616.28;8368461;28;20184;-63
2023/04/22 12:26:38;;;;;;;3.25;1.85;;;;;;;21.75;64.11;99622.84;8357101;28;20036;-63
2023/04/22 12:30:38;;;;;;;4.43;2.00;;;;;;;21.71;64.98;99627.09;8362260;28;20237;-63
2023/04/22 12:34:39;;;;;;;1.52;1.42;;;;;;;21.54;64.42;99636.22;8362259;28;20029;-63
2023/04/22 12:38:39;;;;;;;3.47;1.60;;;;;;;21.23;66.82;99624.34;8358197;28;20254;-62
2023/04/22 12:42:40;;;;;;;4.72;2.20;;;;;;;20.89;72.14;99640.63;8367055;28;20040;-63
2023/04/22 12:46:40;;;;;;;5.68;2.47;;;;;;;20.04;76.54;99646.03;8367442;28;20102;-63
2023/04/22 12:50:41;;;;;;;3.92;2.33;;;;;;;19.66;78.24;99645.22;8369121;28;20070;-60
2023/04/22 12:54:42;;;;;;;3.80;2.03;;;;;;;19.39;78.01;99648.09;8365739;28;20041;-60
2023/04/22 12:58:42;;;;;;;4.45;2.20;;;;;;;19.34;75.54;99633.38;8357310;28;20036;-60
2023/04/22 13:02:44;;;;;;;5.93;2.20;;;;;;;19.43;72.73;99640.31;8361261;28;20036;-61
2023/04/22 13:06:45;;;;;;;3.47;1.70;;;;;;;19.69;72.61;99615.44;8353742;28;20057;-61
2023/04/22 13:10:45;;;;;;;6.30;2.10;;;;;;;19.97;70.39;99631.53;8356303;28;20052;-61
2023/04/22 13:14:46;;;;;;;3.85;1.83;;;;;;;19.86;71.40;99630.31;8373889;28;20518;-60
2023/04/22 13:18:47;;;;;;;4.65;2.13;;;;;;;20.03;70.08;99625.97;8369271;28;20033;-60
2023/04/22 13:22:47;;;;;;;2.38;1.90;;;;;;;19.97;71.27;99620.53;8360378;28;20052;-60
2023/04/22 13:26:48;;;;;;;4.93;2.03;;;;;;;19.96;71.55;99624.34;8360194;28;20067;-60
2023/04/22 13:30:48;;;;;;;2.85;1.65;;;;;;;19.92;70.46;99623.09;8368575;28;20865;-59
2023/04/22 13:34:49;;;;;;;5.28;1.70;;;;;;;19.81;70.62;99621.06;8365378;28;20120;-59
2023/04/22 13:38:50;;;;;;;3.13;1.75;;;;;;;19.77;71.26;99619.84;8367141;28;20408;-59
2023/04/22 13:42:50;;;;;;;4.65;2.15;;;;;;;19.74;71.32;99610.16;8368626;28;20058;-59
2023/04/22 13:46:51;;;;;;;4.88;1.90;;;;;;;19.84;69.85;99620.63;8364952;28;20037;-59
2023/04/22 13:50:51;;;;;;;1.88;1.35;;;;;;;19.87;70.10;99625.66;8360096;28;20040;-59
2023/04/22 13:54:53;;;;;;;2.03;1.20;;;;;;;19.84;69.49;99628.84;8356939;28;20032;-59
2023/04/22 13:58:53;;;;;;;1.35;1.25;;;;;;;19.83;69.22;99607.97;8352981;28;20366;-59
2023/04/22 14:02:55;;;;;;;2.67;1.00;;;;;;;19.75;69.61;99627.44;8357354;28;20028;-59
2023/04/22 14:06:55;;;;;;;2.50;1.10;;;;;;;19.64;69.38;99615.25;8353661;28;20041;-59
2023/04/22 14:10:58;;;;;;;2.00;1.10;;;;;;;19.66;69.49;99623.28;8353327;28;20056;-64
2023/04/22 14:14:58;;;;;;;3.13;1.10;;;;;;;19.57;70.13;99627.38;8352531;28;20036;-64
2023/04/22 14:19:01;;;;;;;3.30;1.15;;;;;;;19.48;69.93;99627.59;8369676;28;20098;-64
2023/04/22 14:23:04;;;;;;;1.02;0.85;;;;;;;19.45;70.64;99628.03;8367589;28;20446;-64
2023/04/22 14:27:04;;;;;;;1.98;0.98;;;;;;;19.49;69.75;99629.28;8361405;28;20101;-59
2023/04/22 14:31:05;;;;;;;1.95;1.05;;;;;;;19.36;69.87;99621.13;8361908;28;20041;-59
2023/04/22 14:35:06;;;;;;;1.83;0.90;;;;;;;19.33;69.84;99629.78;8344413;28;20067;-59
2023/04/22 14:39:06;;;;;;;5.10;2.28;;;;;;;19.11;72.34;99636.59;8360553;28;20056;-59
2023/04/22 14:43:06;;;;;;;1.52;1.15;;;;;;;18.81;73.68;99632.69;8352486;28;20064;-59
2023/04/22 14:47:07;;;;;;;2.03;1.30;;;;;;;18.89;72.57;99627.00;8336754;28;20114;-60
2023/04/22 14:51:07;;;;;;;2.13;1.13;;;;;;;18.99;72.14;99632.84;8342638;28;20051;-60
2023/04/22 14:55:08;;;;;;;1.98;0.90;;;;;;;19.08;71.71;99630.72;8341994;28;20052;-59
2023/04/22 14:59:08;;;;;;;2.88;1.40;;;;;;;19.07;71.97;99629.03;8339938;28;20070;-58
2023/04/22 15:03:09;;;;;;;3.92;1.25;;;;;;;19.06;72.41;99628.19;8354777;28;20052;-59
2023/04/22 15:07:09;;;;;;;4.30;1.25;;;;;;;18.95;73.92;99631.63;8337430;28;20415;-58
2023/04/22 15:11:10;;;;;;;1.77;1.13;;;;;;;18.93;73.96;99644.69;8341334;28;20090;-58
2023/04/22 15:15:14;;;;;;;2.33;1.30;;;;;;;18.92;74.44;99632.03;8342338;28;20048;-58
2023/04/22 15:19:15;;;;;;;2.35;1.40;;;;;;;18.91;74.71;99630.34;8346824;28;20032;-59
2023/04/22 15:23:15;;;;;;;2.20;1.60;;;;;;;18.82;76.08;99634.38;8369760;28;20037;-59
2023/04/22 15:27:16;;;;;;;1.70;1.10;;;;;;;18.87;75.76;99645.53;8356881;28;20465;-58
2023/04/22 15:31:19;;;;;;;3.17;1.65;;;;;;;18.84;76.27;99651.44;8348953;28;20046;-59
2023/04/22 15:35:22;;;;;;;3.47;1.98;;;;;;;18.78;78.32;99649.56;8358411;28;20040;-59
2023/04/22 15:39:22;;;;;;;1.40;1.08;;;;;;;18.66;79.57;99643.06;8342562;28;20059;-58
2023/04/22 15:43:23;;;;;;;3.83;1.23;;;;;;;18.63;80.46;99653.59;8363531;28;20120;-59
2023/04/22 15:47:24;;;;;;;2.05;1.17;;;;;;;18.53;80.47;99643.09;8353754;28;20072;-59
2023/04/22 15:51:25;;;;;;;2.63;0.80;;;;;;;18.47;80.87;99643.94;8346676;28;20076;-58
2023/04/22 15:55:25;;;;;;;2.10;1.10;;;;;;;18.42;80.33;99643.72;8343335;28;20034;-59
2023/04/22 15:59:27;;;;;;;2.75;1.08;;;;;;;18.47;79.75;99645.81;8370569;28;20259;-59
2023/04/22 16:03:28;;;;;;;1.77;1.23;;;;;;;18.47;79.34;99638.47;8340688;28;20036;-59
2023/04/22 16:07:29;;;;;;;2.15;1.00;;;;;;;18.43;79.74;99648.16;8340824;28;20044;-59
2023/04/22 16:11:29;;;;;;;2.40;1.20;;;;;;;18.45;79.38;99642.47;8341301;28;20744;-59
2023/04/22 16:15:30;;;;;;;3.30;1.20;;;;;;;18.41;79.39;99628.34;8341051;28;20445;-58
2023/04/22 16:19:31;;;;;;;1.15;0.88;;;;;;;18.46;78.69;99636.78;8344561;28;20361;-59
2023/04/22 16:23:32;;;;;;;1.20;0.95;;;;;;;18.46;77.97;99641.41;8347167;28;20488;-61
2023/04/22 16:27:32;;;;;;;2.38;1.30;;;;;;;18.40;78.76;99648.56;8353122;28;20063;-61
2023/04/22 16:31:33;;;;;;;3.63;1.25;;;;;;;18.34;78.83;99648.53;8342176;28;20033;-62
2023/04/22 16:35:34;;;;;;;2.80;1.42;;;;;;;18.29;79.71;99653.78;8356436;28;20067;-61
2023/04/22 16:39:35;;;;;;;2.80;1.27;;;;;;;18.21;81.29;99660.31;8353611;28;20613;-61
2023/04/22 16:43:35;;;;;;;2.60;1.20;;;;;;;18.07;84.54;99658.66;8361273;28;20037;-61
2023/04/22 16:47:36;;;;;;;3.50;1.45;;;;;;;17.74;88.41;99656.91;8332781;28;20238;-59
2023/04/22 16:51:36;;;;;;;6.10;2.08;;;;;;;17.51;90.44;99649.09;8346632;28;20091;-60
2023/04/22 16:55:37;;;;;;;1.70;1.40;;;;;;;17.34;93.88;99653.19;8347303;28;20525;-61
2023/04/22 16:59:38;;;;;;;2.00;1.60;;;;;;;17.18;97.86;99650.81;8347958;28;20071;-61
2023/04/22 17:03:38;;;;;;;2.25;1.40;;;;;;;16.94;99.24;99665.00;8339079;28;20455;-61
2023/04/22 17:07:39;;;;;;;2.53;1.80;;;;;;;16.76;100.00;99653.75;8338984;28;20042;-60
2023/04/22 17:11:39;;;;;;;2.53;1.90;;;;;;;16.66;100.00;99662.31;8345183;28;20179;-60
2023/04/22 17:15:40;;;;;;;3.65;1.90;;;;;;;16.52;100.00;99666.00;8353201;28;20493;-61
2023/04/22 17:19:42;;;;;;;2.30;1.83;;;;;;;16.52;100.00;99676.06;8346474;28;20036;-60
2023/04/22 17:23:42;;;;;;;5.07;2.22;;;;;;;16.49;100.00;99671.00;8365365;28;20037;-60
2023/04/22 17:27:43;;;;;;;3.50;2.38;;;;;;;16.45;100.00;99680.63;8368664;28;20087;-60
2023/04/22 17:31:43;;;;;;;3.97;2.20;;;;;;;16.37;100.00;99672.56;8367488;28;20043;-60
2023/04/22 17:35:44;;;;;;;4.57;1.90;;;;;;;16.36;100.00;99677.19;8361324;28;20040;-61
2023/04/22 17:39:44;;;;;;;3.55;1.95;;;;;;;16.36;100.00;99670.88;8355494;28;20032;-60
2023/04/22 17:43:45;;;;;;;2.63;2.08;;;;;;;16.24;100.00;99667.00;8370391;28;20048;-61
2023/04/22 17:47:47;;;;;;;5.95;2.97;;;;;;;16.21;100.00;99667.38;8367033;28;20534;-58
2023/04/22 17:51:48;;;;;;;3.42;2.47;;;;;;;16.18;100.00;99674.09;8367100;28;20226;-60
2023/04/22 17:55:48;;;;;;;3.85;2.30;;;;;;;16.18;100.00;99675.97;8346092;28;20442;-60
2023/04/22 17:59:49;;;;;;;4.20;2.30;;;;;;;16.25;100.00;99674.16;8345004;28;20508;-60
2023/04/22 18:03:50;;;;;;;3.17;2.08;;;;;;;16.27;100.00;99677.50;8366844;28;20037;-59
2023/04/22 18:07:51;;;;;;;3.08;2.10;;;;;;;16.25;100.00;99674.16;8369066;28;20036;-60
2023/04/22 18:11:54;;;;;;;3.35;2.33;;;;;;;16.27;100.00;99675.63;8365207;28;20063;-60
2023/04/22 18:15:54;;;;;;;4.25;1.92;;;;;;;16.31;100.00;99684.28;8367346;28;20129;-60
2023/04/22 18:19:55;;;;;;;3.00;2.05;;;;;;;16.34;100.00;99683.84;8369087;28;20041;-60
2023/04/22 18:23:55;;;;;;;3.55;1.95;;;;;;;16.26;100.00;99675.84;8369069;28;20037;-61
2023/04/22 18:27:56;;;;;;;3.83;3.17;;;;;;;16.30;100.00;99677.97;8369466;28;20083;-60
2023/04/22 18:31:56;;;;;;;2.72;2.20;;;;;;;16.37;100.00;99684.31;8367249;28;20058;-60
2023/04/22 18:35:58;;;;;;;3.65;2.60;;;;;;;16.30;100.00;99698.94;8369757;28;20047;-60
2023/04/22 18:39:59;;;;;;;3.70;2.20;;;;;;;16.30;100.00;99698.94;8369494;28;20090;-60
2023/04/22 18:44:00;;;;;;;4.43;2.97;;;;;;;16.24;100.00;99710.63;8368769;28;20040;-60